createdAt,value
2022-09-21T00:01:12.750Z,2.20
2022-09-21T00:03:43.286Z,2.30
2022-09-21T00:06:16.225Z,2.10
2022-09-21T00:08:43.440Z,2.43
2022-09-21T00:11:14.923Z,2.60
2022-09-21T00:13:42.253Z,2.60
2022-09-21T00:16:09.587Z,2.60
2022-09-21T00:18:36.886Z,2.47
2022-09-21T00:21:12.028Z,2.17
2022-09-21T00:23:39.332Z,2.30
2022-09-21T00:26:09.831Z,2.47
2022-09-21T00:28:36.515Z,2.40
2022-09-21T00:31:05.119Z,2.60
2022-09-21T00:33:32.180Z,2.93
2022-09-21T00:36:04.510Z,2.40
2022-09-21T00:38:31.453Z,2.80
2022-09-21T00:40:58.507Z,2.23
2022-09-21T00:43:25.174Z,2.47
2022-09-21T00:46:01.671Z,2.60
2022-09-21T00:48:29.671Z,2.13
2022-09-21T00:50:58.676Z,2.27
2022-09-21T00:53:25.308Z,2.33
2022-09-21T00:55:56.204Z,2.03
2022-09-21T00:58:30.359Z,2.40
2022-09-21T01:00:59.720Z,2.30
2022-09-21T01:03:28.079Z,2.50
2022-09-21T01:05:56.611Z,2.60
2022-09-21T01:08:26.049Z,1.90
2022-09-21T01:11:30.602Z,2.07
2022-09-21T01:14:26.492Z,1.80
2022-09-21T01:17:04.988Z,2.73
2022-09-21T01:19:57.015Z,2.00
2022-09-21T01:22:49.671Z,2.20
2022-09-21T01:25:37.413Z,1.77
2022-09-21T01:28:20.829Z,2.17
2022-09-21T01:30:50.584Z,2.47
2022-09-21T01:33:24.698Z,2.17
2022-09-21T01:35:57.562Z,1.80
2022-09-21T01:38:33.698Z,2.17
2022-09-21T01:41:04.613Z,2.10
2022-09-21T01:43:38.936Z,1.93
2022-09-21T01:46:10.780Z,2.57
2022-09-21T01:48:41.945Z,2.17
2022-09-21T01:51:12.227Z,1.70
2022-09-21T01:53:51.616Z,2.30
2022-09-21T01:56:23.949Z,2.07
2022-09-21T01:59:01.143Z,1.60
2022-09-21T02:01:31.227Z,1.90
2022-09-21T02:04:03.894Z,2.10
2022-09-21T02:06:31.626Z,1.90
2022-09-21T02:08:58.152Z,2.27
2022-09-21T02:11:24.661Z,1.70
2022-09-21T02:13:55.034Z,2.13
2022-09-21T02:16:40.074Z,1.97
2022-09-21T02:19:22.529Z,1.50
2022-09-21T02:22:12.601Z,1.87
2022-09-21T02:24:43.159Z,1.83
2022-09-21T02:27:34.448Z,2.07
2022-09-21T02:30:09.097Z,1.70
2022-09-21T02:32:52.617Z,1.73
2022-09-21T02:35:38.654Z,1.97
2022-09-21T02:38:22.740Z,2.00
2022-09-21T02:40:56.672Z,1.43
2022-09-21T02:43:30.676Z,1.80
2022-09-21T02:46:06.313Z,1.43
2022-09-21T02:48:38.203Z,1.60
2022-09-21T02:51:11.196Z,1.50
2022-09-21T02:53:39.746Z,1.83
2022-09-21T02:56:09.111Z,1.20
2022-09-21T02:58:40.018Z,1.70
2022-09-21T03:01:10.210Z,1.53
2022-09-21T03:03:37.031Z,1.57
2022-09-21T03:06:03.750Z,1.00
2022-09-21T03:08:30.454Z,1.27
2022-09-21T03:10:57.734Z,1.50
2022-09-21T03:13:25.002Z,1.50
2022-09-21T03:15:59.855Z,1.70
2022-09-21T03:18:26.820Z,1.60
2022-09-21T03:20:53.348Z,1.60
2022-09-21T03:23:19.859Z,1.60
2022-09-21T03:25:47.217Z,1.87
2022-09-21T03:28:14.725Z,1.97
2022-09-21T03:30:42.129Z,1.93
2022-09-21T03:33:08.669Z,2.00
2022-09-21T03:35:35.268Z,1.57
2022-09-21T03:38:02.264Z,1.80
2022-09-21T03:40:29.168Z,2.40
2022-09-21T03:42:56.021Z,1.83
2022-09-21T03:45:22.885Z,2.03
2022-09-21T03:47:49.398Z,2.13
2022-09-21T03:50:16.114Z,1.40
2022-09-21T03:52:42.663Z,2.37
2022-09-21T03:55:09.506Z,1.87
2022-09-21T03:57:36.553Z,1.73
2022-09-21T04:00:07.171Z,1.23
2022-09-21T04:02:34.419Z,1.70
2022-09-21T04:05:01.020Z,1.57
2022-09-21T04:07:33.878Z,1.90
2022-09-21T04:10:01.198Z,1.73
2022-09-21T04:12:28.102Z,1.80
2022-09-21T04:14:54.651Z,2.00
2022-09-21T04:17:21.490Z,2.20
2022-09-21T04:19:48.583Z,2.20
2022-09-21T04:22:15.448Z,1.77
2022-09-21T04:24:41.948Z,2.00
2022-09-21T04:27:09.364Z,1.90
2022-09-21T04:29:36.644Z,3.00
2022-09-21T04:32:04.869Z,1.97
2022-09-21T04:34:31.640Z,1.90
2022-09-21T04:36:59.000Z,2.57
2022-09-21T04:39:26.219Z,2.70
2022-09-21T04:41:52.983Z,2.27
2022-09-21T04:44:19.502Z,2.20
2022-09-21T04:46:46.143Z,2.20
2022-09-21T04:49:12.895Z,2.33
2022-09-21T04:51:39.413Z,2.90
2022-09-21T04:54:06.631Z,2.50
2022-09-21T04:56:33.442Z,2.30
2022-09-21T04:58:59.935Z,2.20
2022-09-21T05:01:26.617Z,2.03
2022-09-21T05:03:53.167Z,2.27
2022-09-21T05:06:19.735Z,2.27
2022-09-21T05:09:04.953Z,2.13
2022-09-21T05:11:31.622Z,2.20
2022-09-21T05:13:58.174Z,2.53
2022-09-21T05:16:24.743Z,2.10
2022-09-21T05:18:54.857Z,2.33
2022-09-21T05:21:21.921Z,2.63
2022-09-21T05:23:48.519Z,3.20
2022-09-21T05:26:15.413Z,2.80
2022-09-21T05:28:42.930Z,3.00
2022-09-21T05:31:18.718Z,2.70
2022-09-21T05:33:52.861Z,2.67
2022-09-21T05:36:48.437Z,2.80
2022-09-21T05:39:15.498Z,2.30
2022-09-21T05:41:42.555Z,2.03
2022-09-21T05:44:13.847Z,2.40
2022-09-21T05:46:56.050Z,2.20
2022-09-21T05:49:35.630Z,1.90
2022-09-21T05:52:34.667Z,2.03
2022-09-21T05:55:19.511Z,1.80
2022-09-21T05:57:54.159Z,2.50
2022-09-21T06:00:22.809Z,2.80
2022-09-21T06:03:02.780Z,2.00
2022-09-21T06:05:29.296Z,2.10
2022-09-21T06:07:55.856Z,2.70
2022-09-21T06:10:24.169Z,2.43
2022-09-21T06:12:51.315Z,2.57
2022-09-21T06:15:18.118Z,3.03
2022-09-21T06:17:44.614Z,3.33
2022-09-21T06:20:11.202Z,3.37
2022-09-21T06:22:37.746Z,3.37
2022-09-21T06:25:04.554Z,4.03
2022-09-21T06:27:31.042Z,5.00
2022-09-21T06:29:57.663Z,5.00
2022-09-21T06:32:24.229Z,4.53
2022-09-21T06:34:51.034Z,4.70
2022-09-21T06:37:17.609Z,3.50
2022-09-21T06:39:44.212Z,3.90
2022-09-21T06:42:10.719Z,3.83
2022-09-21T06:44:37.232Z,2.90
2022-09-21T06:47:03.909Z,3.67
2022-09-21T06:49:30.412Z,2.50
2022-09-21T06:51:56.927Z,2.63
2022-09-21T06:54:24.541Z,2.67
2022-09-21T06:56:51.052Z,2.03
2022-09-21T06:59:17.729Z,3.00
2022-09-21T07:01:44.358Z,2.58
2022-09-21T07:04:11.426Z,4.18
2022-09-21T07:06:37.931Z,3.08
2022-09-21T07:11:51.262Z,2.97
2022-09-21T07:14:18.553Z,3.50
2022-09-21T07:16:46.206Z,3.70
2022-09-21T07:19:12.806Z,4.97
2022-09-21T07:21:39.930Z,4.32
2022-09-21T07:24:11.730Z,3.88
2022-09-21T07:26:40.019Z,3.08
2022-09-21T07:29:06.874Z,3.35
2022-09-21T07:31:33.553Z,3.38
2022-09-21T07:34:00.921Z,2.90
2022-09-21T07:36:27.446Z,3.17
2022-09-21T07:38:54.155Z,2.88
2022-09-21T07:41:20.950Z,3.17
2022-09-21T07:43:47.506Z,3.30
2022-09-21T07:46:14.975Z,3.83
2022-09-21T07:48:42.076Z,3.50
2022-09-21T07:51:11.290Z,2.60
2022-09-21T07:53:39.570Z,2.80
2022-09-21T07:56:12.463Z,2.40
2022-09-21T07:58:58.539Z,2.50
2022-09-21T08:01:26.512Z,3.03
2022-09-21T08:03:55.231Z,2.55
2022-09-21T08:06:23.906Z,2.85
2022-09-21T08:08:56.582Z,2.33
2022-09-21T08:11:25.875Z,2.05
2022-09-21T08:13:54.348Z,1.77
2022-09-21T08:16:21.325Z,1.67
2022-09-21T08:18:47.852Z,2.25
2022-09-21T08:21:14.411Z,2.13
2022-09-21T08:23:42.945Z,1.58
2022-09-21T08:26:20.515Z,1.95
2022-09-21T08:28:49.196Z,1.20
2022-09-21T08:31:19.309Z,1.38
2022-09-21T08:33:46.955Z,2.00
2022-09-21T08:36:13.788Z,1.40
2022-09-21T08:38:40.345Z,1.50
2022-09-21T08:41:23.051Z,1.42
2022-09-21T08:43:54.490Z,1.63
2022-09-21T08:46:25.505Z,1.52
2022-09-21T08:49:01.822Z,2.13
2022-09-21T08:51:36.056Z,1.33
2022-09-21T08:54:23.226Z,2.05
2022-09-21T08:57:04.529Z,1.77
2022-09-21T08:59:31.793Z,1.98
2022-09-21T09:02:30.944Z,1.83
2022-09-21T09:05:12.574Z,2.35
2022-09-21T09:08:02.947Z,1.42
2022-09-21T09:10:53.759Z,1.33
2022-09-21T09:13:32.458Z,1.60
2022-09-21T09:16:31.266Z,1.50
2022-09-21T09:19:04.337Z,1.60
2022-09-21T09:21:43.444Z,1.60
2022-09-21T09:24:43.318Z,1.48
2022-09-21T09:27:18.932Z,1.58
2022-09-21T09:30:16.978Z,1.63
2022-09-21T09:33:02.383Z,2.10
2022-09-21T09:35:34.020Z,1.70
2022-09-21T09:38:19.200Z,1.73
2022-09-21T09:41:24.573Z,1.55
2022-09-21T09:44:20.755Z,1.63
2022-09-21T09:47:21.170Z,1.60
2022-09-21T09:50:23.678Z,1.30
2022-09-21T09:52:54.840Z,2.30
2022-09-21T09:55:25.940Z,1.50
2022-09-21T09:57:54.931Z,2.17
2022-09-21T10:00:22.319Z,2.03
2022-09-21T10:02:52.242Z,1.73
2022-09-21T10:05:38.856Z,1.60
2022-09-21T10:08:05.380Z,1.57
2022-09-21T10:10:37.645Z,1.73
2022-09-21T10:13:22.078Z,2.10
2022-09-21T10:15:51.417Z,1.50
2022-09-21T10:18:25.431Z,1.60
2022-09-21T10:21:01.804Z,1.53
2022-09-21T10:23:30.846Z,1.83
2022-09-21T10:26:04.171Z,1.77
2022-09-21T10:28:31.115Z,1.63
2022-09-21T10:31:23.571Z,1.70
2022-09-21T10:33:51.933Z,2.03
2022-09-21T10:36:27.960Z,1.70
2022-09-21T10:38:54.518Z,1.70
2022-09-21T10:41:21.438Z,2.00
2022-09-21T10:43:50.656Z,2.10
2022-09-21T10:46:17.979Z,1.50
2022-09-21T10:48:46.728Z,1.50
2022-09-21T10:51:30.353Z,1.43
2022-09-21T10:53:57.470Z,2.10
2022-09-21T10:56:24.938Z,1.30
2022-09-21T10:59:12.554Z,1.80
2022-09-21T11:01:50.864Z,1.53
2022-09-21T11:04:42.130Z,1.23
2022-09-21T11:07:34.088Z,2.13
2022-09-21T11:10:00.523Z,1.50
2022-09-21T11:12:26.967Z,1.47
2022-09-21T11:15:02.293Z,1.40
2022-09-21T11:17:42.065Z,1.60
2022-09-21T11:20:20.730Z,1.63
2022-09-21T11:22:57.686Z,1.30
2022-09-21T11:25:58.658Z,1.27
2022-09-21T11:28:42.059Z,1.80
2022-09-21T11:31:34.543Z,1.50
2022-09-21T11:34:25.964Z,1.57
2022-09-21T11:37:20.043Z,2.17
2022-09-21T11:40:12.870Z,1.50
2022-09-21T11:42:45.620Z,1.30
2022-09-21T11:45:33.811Z,2.10
2022-09-21T11:48:25.670Z,1.73
2022-09-21T11:51:15.467Z,1.33
2022-09-21T11:53:54.084Z,1.43
2022-09-21T11:56:31.057Z,2.03
2022-09-21T11:59:19.567Z,1.40
2022-09-21T12:02:05.226Z,1.00
2022-09-21T12:04:42.872Z,1.40
2022-09-21T12:07:20.468Z,1.90
2022-09-21T12:10:16.837Z,1.50
2022-09-21T12:12:59.763Z,4.20
2022-09-21T12:15:51.716Z,1.40
2022-09-21T12:18:27.242Z,1.13
2022-09-21T12:21:01.070Z,1.30
2022-09-21T12:23:45.106Z,1.20
2022-09-21T12:26:23.039Z,1.57
2022-09-21T12:28:54.976Z,1.80
2022-09-21T12:31:43.824Z,1.43
2022-09-21T12:34:18.782Z,1.60
2022-09-21T12:37:04.368Z,1.57
2022-09-21T12:39:51.443Z,1.50
2022-09-21T12:42:40.629Z,1.30
2022-09-21T12:45:22.819Z,1.53
2022-09-21T12:47:58.024Z,1.20
2022-09-21T12:50:48.466Z,1.30
2022-09-21T12:53:20.977Z,1.63
2022-09-21T12:56:09.948Z,1.33
2022-09-21T12:59:12.159Z,1.30
2022-09-21T13:01:57.086Z,1.30
2022-09-21T13:04:46.131Z,1.40
2022-09-21T13:07:51.569Z,2.07
2022-09-21T13:10:39.851Z,1.33
2022-09-21T13:13:18.783Z,1.17
2022-09-21T13:15:48.304Z,1.00
2022-09-21T13:18:31.401Z,1.63
2022-09-21T13:21:22.088Z,1.20
2022-09-21T13:23:56.762Z,1.40
2022-09-21T13:26:33.063Z,1.10
2022-09-21T13:29:21.670Z,1.27
2022-09-21T13:32:00.735Z,1.37
2022-09-21T13:34:32.882Z,1.30
2022-09-21T13:37:11.732Z,1.40
2022-09-21T13:39:50.175Z,1.63
2022-09-21T13:42:34.794Z,1.10
2022-09-21T13:45:24.176Z,1.27
2022-09-21T13:47:54.599Z,0.90
2022-09-21T13:50:32.391Z,1.07
2022-09-21T13:53:09.761Z,1.40
2022-09-21T13:55:40.842Z,0.90
2022-09-21T13:58:24.745Z,1.77
2022-09-21T14:01:00.103Z,1.20
2022-09-21T14:03:40.770Z,1.37
2022-09-21T14:06:15.799Z,1.20
2022-09-21T14:08:51.598Z,1.10
2022-09-21T14:11:59.079Z,1.10
2022-09-21T14:14:33.165Z,1.37
2022-09-21T14:17:01.375Z,1.20
2022-09-21T14:19:31.987Z,0.93
2022-09-21T14:22:04.689Z,1.10
2022-09-21T14:24:49.812Z,1.40
2022-09-21T14:27:26.812Z,0.93
2022-09-21T14:29:59.347Z,1.30
2022-09-21T14:32:35.390Z,1.20
2022-09-21T14:35:11.258Z,1.37
2022-09-21T14:37:43.076Z,0.80
2022-09-21T14:40:31.427Z,1.10
2022-09-21T14:43:01.998Z,1.90
2022-09-21T14:46:03.151Z,1.20
2022-09-21T14:49:01.979Z,0.90
2022-09-21T14:52:23.509Z,1.67
2022-09-21T14:55:11.793Z,1.20
2022-09-21T14:58:15.027Z,1.33
2022-09-21T15:00:44.366Z,1.10
2022-09-21T15:03:32.761Z,0.93
2022-09-21T15:06:34.116Z,1.07
2022-09-21T15:09:41.589Z,1.37
2022-09-21T15:12:17.009Z,1.23
2022-09-21T15:15:15.339Z,0.90
2022-09-21T15:17:59.183Z,1.10
2022-09-21T15:20:28.455Z,0.90
2022-09-21T15:22:57.044Z,0.80
2022-09-21T15:25:26.711Z,0.90
2022-09-21T15:27:54.839Z,1.10
2022-09-21T15:30:24.687Z,1.00
2022-09-21T15:32:55.166Z,0.80
2022-09-21T15:35:27.897Z,1.10
2022-09-21T15:37:56.427Z,1.00
2022-09-21T15:40:30.936Z,1.43
2022-09-21T15:43:19.531Z,1.40
2022-09-21T15:46:03.786Z,1.33
2022-09-21T15:48:34.184Z,1.47
2022-09-21T15:51:13.004Z,0.90
2022-09-21T15:53:45.489Z,1.50
2022-09-21T15:56:22.110Z,1.10
2022-09-21T15:58:53.204Z,0.90
2022-09-21T16:01:23.287Z,1.03
2022-09-21T16:04:03.072Z,1.10
2022-09-21T16:06:41.603Z,1.03
2022-09-21T16:09:31.511Z,1.53
2022-09-21T16:11:58.044Z,1.27
2022-09-21T16:14:43.479Z,1.00
2022-09-21T16:17:11.398Z,0.87
2022-09-21T16:19:42.935Z,1.10
2022-09-21T16:22:14.299Z,1.30
2022-09-21T16:24:50.508Z,1.00
2022-09-21T16:27:19.468Z,0.90
2022-09-21T16:29:48.451Z,0.90
2022-09-21T16:32:18.162Z,0.90
2022-09-21T16:34:46.902Z,1.13
2022-09-21T16:37:25.664Z,1.17
2022-09-21T16:39:54.214Z,1.03
2022-09-21T16:42:22.732Z,1.40
2022-09-21T16:44:50.426Z,1.13
2022-09-21T16:47:25.589Z,1.30
2022-09-21T16:50:02.511Z,1.07
2022-09-21T16:52:30.518Z,1.23
2022-09-21T16:54:58.626Z,1.00
2022-09-21T16:57:26.035Z,1.40
2022-09-21T16:59:53.348Z,1.10
2022-09-21T17:02:19.951Z,1.30
2022-09-21T17:04:48.329Z,1.53
2022-09-21T17:07:16.679Z,0.97
2022-09-21T17:09:48.035Z,1.40
2022-09-21T17:12:17.677Z,0.97
2022-09-21T17:14:46.949Z,0.93
2022-09-21T17:17:19.170Z,1.40
2022-09-21T17:19:49.837Z,1.40
2022-09-21T17:22:17.232Z,1.37
2022-09-21T17:24:52.121Z,2.23
2022-09-21T17:27:25.251Z,1.00
2022-09-21T17:29:54.170Z,0.93
2022-09-21T17:32:23.001Z,1.00
2022-09-21T17:35:01.550Z,1.13
2022-09-21T17:37:29.392Z,1.50
2022-09-21T17:39:56.123Z,1.00
2022-09-21T17:42:24.926Z,1.00
2022-09-21T17:45:01.556Z,1.30
2022-09-21T17:47:31.263Z,1.20
2022-09-21T17:50:08.251Z,1.40
2022-09-21T17:52:54.213Z,1.43
2022-09-21T17:55:21.118Z,1.80
2022-09-21T17:58:05.768Z,2.97
2022-09-21T18:00:44.079Z,3.00
2022-09-21T18:03:32.149Z,3.30
2022-09-21T18:06:01.770Z,3.70
2022-09-21T18:08:29.963Z,3.97
2022-09-21T18:10:59.420Z,4.33
2022-09-21T18:13:34.757Z,2.80
2022-09-21T18:16:10.503Z,3.00
2022-09-21T18:18:46.770Z,2.63
2022-09-21T18:21:22.656Z,3.00
2022-09-21T18:24:13.523Z,2.63
2022-09-21T18:26:41.529Z,2.43
2022-09-21T18:29:40.644Z,1.43
2022-09-21T18:32:28.636Z,1.73
2022-09-21T18:35:23.600Z,1.50
2022-09-21T18:38:04.419Z,1.00
2022-09-21T18:40:52.785Z,1.30
2022-09-21T18:43:43.617Z,1.30
2022-09-21T18:46:29.126Z,2.00
2022-09-21T18:48:59.067Z,1.80
2022-09-21T18:51:45.490Z,2.13
2022-09-21T18:54:19.983Z,1.30
2022-09-21T18:56:47.503Z,2.30
2022-09-21T18:59:15.595Z,1.70
2022-09-21T19:01:44.187Z,1.60
2022-09-21T19:04:13.834Z,1.47
2022-09-21T19:07:08.514Z,1.60
2022-09-21T19:09:57.766Z,2.40
2022-09-21T19:12:49.555Z,2.27
2022-09-21T19:15:59.638Z,1.90
2022-09-21T19:18:46.804Z,1.93
2022-09-21T19:21:45.814Z,1.30
2022-09-21T19:24:26.773Z,1.77
2022-09-21T19:27:25.021Z,1.43
2022-09-21T19:30:05.911Z,1.30
2022-09-21T19:32:47.493Z,2.23
2022-09-21T19:35:22.008Z,2.50
2022-09-21T19:37:50.208Z,2.37
2022-09-21T19:40:19.048Z,2.47
2022-09-21T19:43:16.483Z,2.60
2022-09-21T19:46:05.177Z,2.50
2022-09-21T19:48:45.048Z,3.47
2022-09-21T19:51:27.665Z,2.37
2022-09-21T19:54:15.194Z,2.93
2022-09-21T19:57:05.774Z,3.17
2022-09-21T19:59:44.702Z,2.70
2022-09-21T20:02:19.748Z,3.40
2022-09-21T20:04:56.819Z,3.23
2022-09-21T20:07:28.677Z,2.77
2022-09-21T20:10:08.347Z,2.70
2022-09-21T20:12:43.122Z,1.67
2022-09-21T20:15:21.652Z,2.20
2022-09-21T20:17:57.654Z,1.33
2022-09-21T20:20:26.674Z,1.50
2022-09-21T20:22:54.395Z,1.90
2022-09-21T20:25:23.936Z,1.37
2022-09-21T20:27:53.309Z,1.20
2022-09-21T20:30:22.633Z,1.43
2022-09-21T20:32:53.131Z,1.40
2022-09-21T20:35:25.312Z,1.30
2022-09-21T20:37:52.469Z,1.10
2022-09-21T20:40:20.404Z,1.13
2022-09-21T20:42:47.027Z,1.43
2022-09-21T20:45:13.961Z,1.37
2022-09-21T20:47:42.106Z,1.07
2022-09-21T20:50:13.430Z,1.60
2022-09-21T20:52:42.775Z,1.47
2022-09-21T20:55:12.535Z,0.90
2022-09-21T20:57:40.410Z,1.50
2022-09-21T21:00:09.729Z,1.10
2022-09-21T21:02:37.290Z,1.23
2022-09-21T21:05:05.479Z,1.17
2022-09-21T21:07:32.415Z,1.57
2022-09-21T21:09:58.894Z,1.37
2022-09-21T21:12:26.208Z,1.73
2022-09-21T21:14:52.966Z,1.23
2022-09-21T21:17:19.488Z,1.40
2022-09-21T21:19:46.037Z,1.40
2022-09-21T21:22:13.791Z,1.20
2022-09-21T21:24:40.802Z,1.70
2022-09-21T21:27:16.159Z,1.50
2022-09-21T21:29:49.919Z,1.13
2022-09-21T21:32:19.497Z,1.33
2022-09-21T21:34:46.395Z,1.10
2022-09-21T21:40:03.291Z,1.60
2022-09-21T21:42:29.950Z,1.53
2022-09-21T21:44:56.940Z,1.50
2022-09-21T21:47:40.524Z,1.37
2022-09-21T21:50:10.795Z,1.30
2022-09-21T21:52:37.969Z,1.50
2022-09-21T21:55:05.509Z,1.60
2022-09-21T21:57:33.121Z,1.10
2022-09-21T21:59:59.908Z,1.90
2022-09-21T22:02:26.945Z,1.40
2022-09-21T22:04:53.741Z,1.43
2022-09-21T22:07:20.227Z,1.67
2022-09-21T22:09:46.726Z,1.40
2022-09-21T22:12:13.528Z,1.40
2022-09-21T22:14:40.168Z,1.60
2022-09-21T22:17:06.690Z,1.70
2022-09-21T22:19:55.724Z,1.80
2022-09-21T22:22:22.278Z,1.60
2022-09-21T22:24:49.044Z,1.67
2022-09-21T22:27:16.402Z,1.90
2022-09-21T22:29:43.139Z,2.70
2022-09-21T22:32:09.626Z,2.47
2022-09-21T22:34:37.140Z,1.83
2022-09-21T22:37:04.990Z,2.10
2022-09-21T22:39:32.174Z,2.20
2022-09-21T22:42:00.369Z,1.93
2022-09-21T22:44:26.854Z,2.00
2022-09-21T22:46:53.611Z,2.40
2022-09-21T22:49:20.155Z,2.07
2022-09-21T22:51:46.671Z,2.70
2022-09-21T22:54:13.178Z,1.90
2022-09-21T22:56:39.862Z,2.17
2022-09-21T22:59:06.405Z,2.20
2022-09-21T23:01:38.638Z,2.40
2022-09-21T23:04:08.204Z,2.00
2022-09-21T23:06:38.105Z,2.03
2022-09-21T23:09:08.167Z,1.90
2022-09-21T23:11:38.525Z,2.00
2022-09-21T23:14:05.843Z,2.00
2022-09-21T23:16:33.278Z,2.13
2022-09-21T23:19:00.090Z,2.37
2022-09-21T23:21:28.709Z,2.10
2022-09-21T23:24:01.774Z,2.23
2022-09-21T23:26:30.500Z,2.03
2022-09-21T23:29:02.215Z,2.30
2022-09-21T23:31:31.338Z,2.10
2022-09-21T23:34:12.427Z,2.40
2022-09-21T23:36:40.302Z,1.97
2022-09-21T23:39:09.507Z,1.80
2022-09-21T23:41:36.841Z,2.23
2022-09-21T23:44:04.519Z,2.00
2022-09-21T23:46:33.573Z,2.20
2022-09-21T23:49:00.961Z,2.00
2022-09-21T23:51:29.802Z,2.37
2022-09-21T23:53:57.459Z,2.07
2022-09-21T23:56:24.603Z,2.20
2022-09-21T23:58:51.986Z,2.33
